Time;durP1;ratioP1;P1;durP2;ratioP2;P2;SDS_P1;SDS_P2;PMS_P1;PMS_P2;Temp;Humidity;BMP_temperature;BMP_pressure;BME280_temperature;BME280_humidity;BME280_pressure;Samples;Min_cycle;Max_cycle;Signal;HPM_P1;HPM_P2
2022/09/20 00:02:10;;;;;;;0.65;0.63;;;17.30;77.80;;;;;;3985952;29;20125;-68
2022/09/20 00:04:32;;;;;;;0.52;0.52;;;17.30;77.70;;;;;;3985965;29;20087;-67
2022/09/20 00:06:54;;;;;;;0.00;0.00;;;17.30;77.80;;;;;;3986061;29;20070;-67
2022/09/20 00:09:35;;;;;;;0.33;0.33;;;17.30;77.70;;;;;;3999846;29;20504;-68
2022/09/20 00:11:57;;;;;;;0.00;0.00;;;17.30;77.80;;;;;;3985708;29;20062;-68
2022/09/20 00:14:19;;;;;;;0.00;0.00;;;17.20;77.70;;;;;;3986240;29;20134;-68
2022/09/20 00:17:01;;;;;;;0.00;0.00;;;17.30;77.90;;;;;;3984988;29;20098;-68
2022/09/20 00:19:24;;;;;;;0.00;0.00;;;17.30;77.90;;;;;;3986131;29;20401;-68
2022/09/20 00:22:05;;;;;;;0.00;0.00;;;17.20;77.90;;;;;;3986267;29;20044;-68
2022/09/20 00:24:46;;;;;;;0.00;0.00;;;17.20;77.90;;;;;;3986088;29;20072;-68
2022/09/20 00:27:28;;;;;;;0.00;0.00;;;17.30;78.00;;;;;;3985922;29;20513;-68
2022/09/20 00:29:52;;;;;;;0.70;0.70;;;17.20;78.00;;;;;;3985411;29;20374;-68
2022/09/20 00:32:15;;;;;;;0.00;0.00;;;17.20;78.10;;;;;;3985911;29;20078;-69
2022/09/20 00:35:07;;;;;;;8.38;0.50;;;17.20;78.10;;;;;;3970620;29;20135;-69
2022/09/20 00:37:29;;;;;;;0.00;0.00;;;17.20;78.20;;;;;;3970499;29;20145;-68
2022/09/20 00:39:51;;;;;;;0.00;0.00;;;17.20;78.20;;;;;;3967977;29;20503;-68
2022/09/20 00:42:14;;;;;;;0.00;0.00;;;17.20;78.30;;;;;;3970787;29;20066;-68
2022/09/20 00:44:55;;;;;;;0.00;0.00;;;17.20;78.30;;;;;;3984870;29;20133;-64
2022/09/20 00:47:29;;;;;;;0.00;0.00;;;17.20;78.30;;;;;;3996704;29;20058;-63
2022/09/20 00:50:22;;;;;;;0.00;0.00;;;17.20;78.30;;;;;;3985136;29;20284;-64
2022/09/20 00:53:07;;;;;;;0.00;0.00;;;17.20;78.20;;;;;;3985660;29;20406;-65
2022/09/20 00:55:51;;;;;;;0.10;0.10;;;17.20;78.30;;;;;;3988164;29;20061;-63
2022/09/20 00:58:38;;;;;;;0.00;0.00;;;17.20;78.30;;;;;;4001098;29;20214;-64
2022/09/20 01:01:00;;;;;;;1.95;1.85;;;17.20;78.30;;;;;;3981977;29;20086;-64
2022/09/20 01:03:28;;;;;;;0.00;0.00;;;17.20;78.30;;;;;;3987123;29;20050;-64
2022/09/20 01:05:52;;;;;;;0.00;0.00;;;17.20;78.30;;;;;;3987616;29;20172;-64
2022/09/20 01:08:14;;;;;;;0.00;0.00;;;17.20;78.30;;;;;;3988391;29;20454;-64
2022/09/20 01:10:55;;;;;;;0.00;0.00;;;17.20;78.30;;;;;;4002255;29;20154;-64
2022/09/20 01:13:17;;;;;;;0.00;0.00;;;17.20;78.30;;;;;;3991909;29;20131;-65
2022/09/20 01:16:00;;;;;;;0.00;0.00;;;17.20;78.30;;;;;;3972571;29;20098;-64
2022/09/20 01:18:44;;;;;;;0.00;0.00;;;17.20;78.40;;;;;;3986655;29;20110;-64
2022/09/20 01:21:07;;;;;;;0.00;0.00;;;17.10;78.30;;;;;;3987630;29;20163;-64
2022/09/20 01:23:44;;;;;;;0.22;0.22;;;17.10;78.30;;;;;;3987498;29;20047;-64
2022/09/20 01:26:48;;;;;;;0.00;0.00;;;17.10;78.30;;;;;;3967603;29;20061;-64
2022/09/20 01:29:26;;;;;;;1.10;1.00;;;17.10;78.20;;;;;;3967384;29;20114;-64
2022/09/20 01:31:52;;;;;;;0.13;0.13;;;17.10;78.20;;;;;;3987718;29;20089;-64
2022/09/20 01:34:20;;;;;;;0.00;0.00;;;17.10;78.20;;;;;;3987368;29;20054;-64
2022/09/20 01:37:08;;;;;;;0.00;0.00;;;17.10;78.30;;;;;;3987182;29;20126;-64
2022/09/20 01:39:39;;;;;;;0.00;0.00;;;17.10;78.20;;;;;;3999143;29;20141;-64
2022/09/20 01:42:29;;;;;;;0.00;0.00;;;17.10;78.20;;;;;;3987466;29;20211;-63
2022/09/20 01:45:01;;;;;;;0.00;0.00;;;17.10;78.20;;;;;;3987285;29;20222;-63
2022/09/20 01:47:33;;;;;;;0.00;0.00;;;17.10;78.20;;;;;;3987392;29;20501;-64
2022/09/20 01:50:25;;;;;;;0.00;0.00;;;17.10;78.20;;;;;;3986984;29;20065;-63
2022/09/20 01:53:26;;;;;;;0.17;0.17;;;17.10;78.20;;;;;;3986817;29;20106;-64
2022/09/20 01:56:43;;;;;;;0.00;0.00;;;17.10;78.20;;;;;;3986871;29;20067;-64
2022/09/20 01:59:37;;;;;;;0.00;0.00;;;17.10;78.30;;;;;;3949974;29;20494;-63
2022/09/20 02:02:52;;;;;;;0.00;0.00;;;17.10;78.50;;;;;;3975291;29;20126;-63
2022/09/20 02:06:07;;;;;;;0.00;0.00;;;17.10;78.60;;;;;;3995439;29;20050;-63
2022/09/20 02:08:46;;;;;;;0.00;0.00;;;17.10;78.60;;;;;;3982825;29;20058;-63
2022/09/20 02:11:33;;;;;;;0.00;0.00;;;17.10;78.60;;;;;;3987021;29;20494;-63
2022/09/20 02:14:32;;;;;;;0.00;0.00;;;17.10;78.60;;;;;;3987159;29;20060;-64
2022/09/20 02:17:17;;;;;;;0.00;0.00;;;17.10;78.70;;;;;;3986885;29;20154;-63
2022/09/20 02:20:26;;;;;;;0.00;0.00;;;17.00;78.50;;;;;;3986928;29;20057;-63
2022/09/20 02:23:20;;;;;;;0.30;0.30;;;17.00;78.60;;;;;;3958226;29;20081;-63
2022/09/20 02:26:03;;;;;;;0.00;0.00;;;17.00;78.80;;;;;;3957107;29;20065;-63
2022/09/20 02:28:36;;;;;;;0.00;0.00;;;17.00;78.50;;;;;;3971987;29;20138;-63
2022/09/20 02:31:28;;;;;;;0.00;0.00;;;17.00;78.60;;;;;;3971766;29;20140;-63
2022/09/20 02:34:39;;;;;;;0.00;0.00;;;17.00;78.50;;;;;;3972603;29;20135;-62
2022/09/20 02:37:25;;;;;;;0.00;0.00;;;17.00;78.50;;;;;;3984088;29;20056;-63
2022/09/20 02:39:57;;;;;;;0.00;0.00;;;17.00;78.50;;;;;;3998353;29;20057;-63
2022/09/20 02:42:25;;;;;;;0.00;0.00;;;17.00;78.60;;;;;;3986135;29;20066;-63
2022/09/20 02:45:14;;;;;;;0.00;0.00;;;17.00;78.50;;;;;;3972122;29;20414;-63
2022/09/20 02:47:38;;;;;;;0.00;0.00;;;17.00;78.50;;;;;;3971388;29;20115;-63
2022/09/20 02:50:15;;;;;;;0.00;0.00;;;17.00;78.50;;;;;;3971693;29;20474;-63
2022/09/20 02:53:14;;;;;;;0.00;0.00;;;17.00;78.60;;;;;;3973017;29;20111;-63
2022/09/20 02:55:43;;;;;;;0.00;0.00;;;17.00;78.70;;;;;;3989775;29;20471;-63
2022/09/20 02:58:33;;;;;;;0.00;0.00;;;17.00;78.70;;;;;;3971330;29;20054;-63
2022/09/20 03:01:02;;;;;;;0.00;0.00;;;17.00;78.70;;;;;;3956376;29;20542;-63
2022/09/20 03:03:40;;;;;;;0.00;0.00;;;17.00;78.80;;;;;;3969219;29;20145;-63
2022/09/20 03:06:12;;;;;;;0.00;0.00;;;17.00;78.90;;;;;;3997640;29;20081;-64
2022/09/20 03:08:43;;;;;;;0.00;0.00;;;16.90;78.90;;;;;;3985249;29;20057;-63
2022/09/20 03:11:15;;;;;;;0.00;0.00;;;16.90;78.90;;;;;;3982975;29;20102;-63
2022/09/20 03:14:11;;;;;;;0.00;0.00;;;16.90;78.90;;;;;;3975581;29;20294;-64
2022/09/20 03:17:03;;;;;;;0.00;0.00;;;16.90;78.90;;;;;;3973686;29;20186;-63
2022/09/20 03:20:06;;;;;;;0.00;0.00;;;16.90;78.90;;;;;;3971165;29;20103;-63
2022/09/20 03:22:40;;;;;;;0.00;0.00;;;16.90;79.00;;;;;;3971025;29;20778;-63
2022/09/20 03:25:26;;;;;;;0.00;0.00;;;16.90;78.90;;;;;;3973590;29;20404;-64
2022/09/20 03:28:18;;;;;;;0.00;0.00;;;16.90;78.90;;;;;;3985347;29;20106;-64
2022/09/20 03:30:53;;;;;;;0.00;0.00;;;16.90;78.90;;;;;;3998615;29;20111;-64
2022/09/20 03:33:47;;;;;;;0.00;0.00;;;16.90;78.80;;;;;;3992932;29;20108;-64
2022/09/20 03:36:50;;;;;;;0.00;0.00;;;16.90;78.70;;;;;;3971384;29;20135;-65
2022/09/20 03:39:58;;;;;;;0.00;0.00;;;16.90;78.60;;;;;;3990656;29;20057;-65
2022/09/20 03:42:25;;;;;;;0.00;0.00;;;16.90;78.60;;;;;;3975513;29;20058;-65
2022/09/20 03:45:26;;;;;;;0.00;0.00;;;16.90;78.50;;;;;;3970672;29;20574;-65
2022/09/20 03:48:10;;;;;;;0.00;0.00;;;16.80;78.50;;;;;;3955955;29;20066;-65
2022/09/20 03:51:16;;;;;;;0.00;0.00;;;16.80;78.50;;;;;;3970513;29;20065;-65
2022/09/20 03:54:34;;;;;;;0.65;0.65;;;16.80;78.40;;;;;;3981181;29;20057;-65
2022/09/20 03:57:38;;;;;;;0.00;0.00;;;16.80;78.40;;;;;;3985392;29;20061;-65
2022/09/20 04:00:16;;;;;;;0.00;0.00;;;16.80;78.20;;;;;;3997427;29;20820;-64
2022/09/20 04:03:25;;;;;;;0.00;0.00;;;16.80;78.20;;;;;;3985657;29;20060;-63
2022/09/20 04:06:38;;;;;;;0.00;0.00;;;16.80;78.20;;;;;;3980283;29;20065;-64
2022/09/20 04:09:53;;;;;;;0.00;0.00;;;16.80;78.20;;;;;;3968507;29;20071;-64
2022/09/20 04:12:45;;;;;;;0.00;0.00;;;16.80;78.10;;;;;;3970195;29;20464;-64
2022/09/20 04:15:22;;;;;;;0.00;0.00;;;16.70;78.10;;;;;;3995877;29;20057;-64
2022/09/20 04:17:52;;;;;;;0.00;0.00;;;16.70;78.00;;;;;;3983128;29;20070;-64
2022/09/20 04:20:20;;;;;;;0.00;0.00;;;16.70;78.00;;;;;;3986205;29;20055;-64
2022/09/20 04:23:12;;;;;;;0.00;0.00;;;16.70;78.00;;;;;;3985666;29;20053;-64
2022/09/20 04:25:53;;;;;;;0.00;0.00;;;16.70;78.00;;;;;;3955378;29;20565;-65
2022/09/20 04:28:43;;;;;;;0.00;0.00;;;16.70;78.90;;;;;;3962780;29;20111;-68
2022/09/20 04:31:34;;;;;;;0.00;0.00;;;16.70;78.00;;;;;;3970683;29;20053;-68
2022/09/20 04:33:59;;;;;;;0.00;0.00;;;16.70;78.00;;;;;;3995578;29;20046;-68
2022/09/20 04:36:56;;;;;;;0.00;0.00;;;16.70;78.00;;;;;;3980915;29;20148;-68
2022/09/20 04:39:46;;;;;;;0.00;0.00;;;16.70;78.10;;;;;;3985101;29;20065;-68
2022/09/20 04:43:23;;;;;;;0.00;0.00;;;16.60;78.00;;;;;;3985513;29;20523;-68
2022/09/20 04:46:29;;;;;;;1.20;0.65;;;16.60;78.00;;;;;;3940827;29;20065;-68
2022/09/20 04:49:38;;;;;;;0.00;0.00;;;16.60;77.90;;;;;;3953377;29;20563;-68
2022/09/20 04:52:48;;;;;;;0.00;0.00;;;16.60;77.90;;;;;;3982819;29;20812;-68
2022/09/20 04:55:49;;;;;;;0.00;0.00;;;16.60;77.90;;;;;;3937837;30;20126;-69
2022/09/20 04:58:58;;;;;;;0.00;0.00;;;16.60;77.90;;;;;;3938587;30;20499;-67
2022/09/20 05:02:04;;;;;;;0.00;0.00;;;16.60;77.90;;;;;;3971712;29;20057;-64
2022/09/20 05:05:23;;;;;;;0.00;0.00;;;16.60;78.00;;;;;;3969846;29;20122;-64
2022/09/20 05:08:39;;;;;;;0.00;0.00;;;16.60;77.90;;;;;;3954325;29;20213;-64
2022/09/20 05:11:30;;;;;;;0.00;0.00;;;16.50;77.90;;;;;;3981635;29;20141;-64
2022/09/20 05:14:53;;;;;;;0.00;0.00;;;16.50;77.90;;;;;;3955670;29;20131;-64
2022/09/20 05:17:32;;;;;;;0.00;0.00;;;16.50;77.90;;;;;;3956145;29;20061;-66
2022/09/20 05:20:15;;;;;;;0.00;0.00;;;16.50;77.90;;;;;;3969417;29;20101;-64
2022/09/20 05:23:29;;;;;;;0.00;0.00;;;16.50;77.90;;;;;;3969644;29;20051;-63
2022/09/20 05:26:06;;;;;;;0.00;0.00;;;16.50;78.00;;;;;;3983635;29;20051;-65
2022/09/20 05:28:36;;;;;;;0.00;0.00;;;16.50;78.00;;;;;;3983278;29;20038;-62
2022/09/20 05:31:24;;;;;;;0.00;0.00;;;16.50;78.10;;;;;;3984497;29;20057;-63
2022/09/20 05:34:15;;;;;;;0.00;0.00;;;16.50;78.30;;;;;;3969907;29;20057;-63
2022/09/20 05:36:49;;;;;;;0.00;0.00;;;16.50;78.60;;;;;;3955086;29;20133;-64
2022/09/20 05:39:38;;;;;;;0.00;0.00;;;16.50;78.80;;;;;;3959834;29;20114;-64
2022/09/20 05:42:11;;;;;;;0.10;0.10;;;16.50;78.90;;;;;;3986997;29;20437;-66
2022/09/20 05:45:04;;;;;;;0.75;0.75;;;16.50;79.20;;;;;;3987385;29;20053;-69
2022/09/20 05:47:52;;;;;;;0.00;0.00;;;16.50;79.70;;;;;;3987260;29;20195;-69
2022/09/20 05:50:39;;;;;;;0.00;0.00;;;16.60;79.60;;;;;;3976385;29;20058;-69
2022/09/20 05:53:54;;;;;;;0.00;0.00;;;16.60;79.20;;;;;;3972376;29;20092;-69
2022/09/20 05:56:46;;;;;;;0.00;0.00;;;16.60;78.70;;;;;;3975051;29;20061;-69
2022/09/20 05:59:34;;;;;;;0.00;0.00;;;16.60;78.50;;;;;;3973995;29;20494;-69
2022/09/20 06:02:15;;;;;;;0.00;0.00;;;16.60;78.30;;;;;;3957857;29;20092;-70
2022/09/20 06:04:45;;;;;;;0.00;0.00;;;16.50;78.20;;;;;;3971882;29;20078;-69
2022/09/20 06:07:41;;;;;;;0.22;0.22;;;16.50;78.10;;;;;;3963492;29;20093;-70
2022/09/20 06:10:29;;;;;;;0.00;0.00;;;16.50;78.10;;;;;;3987352;29;20058;-70
2022/09/20 06:13:37;;;;;;;5.88;1.13;;;16.50;78.00;;;;;;3973541;29;20165;-69
2022/09/20 06:16:28;;;;;;;0.00;0.00;;;16.50;78.00;;;;;;3972065;29;20093;-70
2022/09/20 06:19:01;;;;;;;0.00;0.00;;;16.50;78.00;;;;;;3984973;29;20548;-69
2022/09/20 06:21:49;;;;;;;0.00;0.00;;;16.50;78.00;;;;;;3957938;29;20403;-69
2022/09/20 06:24:24;;;;;;;0.00;0.00;;;16.50;78.00;;;;;;3971960;29;20137;-69
2022/09/20 06:26:48;;;;;;;0.00;0.00;;;16.50;78.10;;;;;;3972393;29;20063;-68
2022/09/20 06:29:14;;;;;;;0.00;0.00;;;16.50;78.20;;;;;;3970594;29;20053;-68
2022/09/20 06:31:54;;;;;;;0.47;0.47;;;16.50;78.30;;;;;;3982123;29;20616;-68
2022/09/20 06:34:35;;;;;;;0.00;0.00;;;16.40;78.30;;;;;;3986798;29;20061;-67
2022/09/20 06:43:13;;;;;;;0.20;0.20;;;16.50;79.60;;;;;;3986706;29;20151;-67
2022/09/20 06:45:35;;;;;;;0.00;0.00;;;16.50;79.60;;;;;;3987154;29;20380;-66
2022/09/20 06:48:01;;;;;;;0.00;0.00;;;16.50;79.20;;;;;;3986150;29;20194;-68
2022/09/20 06:50:23;;;;;;;0.00;0.00;;;16.50;78.70;;;;;;3986591;29;20147;-69
2022/09/20 06:52:46;;;;;;;0.00;0.00;;;16.50;78.60;;;;;;3986339;29;20145;-69
2022/09/20 06:55:18;;;;;;;0.00;0.00;;;16.50;78.50;;;;;;3982769;29;20054;-69
2022/09/20 06:57:59;;;;;;;3.42;1.67;;;16.50;78.40;;;;;;3970853;29;20197;-69
2022/09/20 07:00:40;;;;;;;0.00;0.00;;;16.50;78.40;;;;;;3971667;29;20057;-71
2022/09/20 07:03:21;;;;;;;0.00;0.00;;;16.40;78.30;;;;;;3986327;29;20050;-71
2022/09/20 07:05:43;;;;;;;0.00;0.00;;;16.40;78.30;;;;;;3981594;29;20062;-69
2022/09/20 07:08:24;;;;;;;0.00;0.00;;;16.40;78.30;;;;;;3986081;29;20056;-72
2022/09/20 07:11:09;;;;;;;0.00;0.00;;;16.40;78.30;;;;;;3986810;29;20057;-72
2022/09/20 07:13:31;;;;;;;0.65;0.65;;;16.40;78.30;;;;;;3987146;29;20459;-72
2022/09/20 07:16:00;;;;;;;0.00;0.00;;;16.40;78.40;;;;;;3985093;29;20066;-71
2022/09/20 07:18:42;;;;;;;0.00;0.00;;;16.40;79.40;;;;;;3985919;29;20639;-71
2022/09/20 07:21:05;;;;;;;0.00;0.00;;;16.40;78.70;;;;;;3997863;29;20058;-69
2022/09/20 07:23:27;;;;;;;0.00;0.00;;;16.40;78.60;;;;;;3986496;29;20383;-70
2022/09/20 07:26:16;;;;;;;;;;;16.40;78.60;;;;;;3986768;29;20138;-69
2022/09/20 07:28:38;;;;;;;0.00;0.00;;;16.40;78.60;;;;;;3986263;29;20007;-70
2022/09/20 07:31:00;;;;;;;0.00;0.00;;;16.40;78.60;;;;;;3985116;29;20050;-68
2022/09/20 07:33:41;;;;;;;0.00;0.00;;;16.40;78.60;;;;;;3986511;29;20065;-70
2022/09/20 07:36:22;;;;;;;0.00;0.00;;;16.40;78.60;;;;;;3986344;29;20061;-69
2022/09/20 07:39:03;;;;;;;0.45;0.45;;;16.40;78.60;;;;;;3972402;29;20061;-69
2022/09/20 07:41:50;;;;;;;0.00;0.00;;;16.40;78.70;;;;;;3982291;29;20631;-71
2022/09/20 07:44:30;;;;;;;0.00;0.00;;;16.40;78.80;;;;;;3986225;29;20721;-71
2022/09/20 07:46:54;;;;;;;0.00;0.00;;;16.40;78.80;;;;;;3984098;29;20085;-70
2022/09/20 07:49:34;;;;;;;0.00;0.00;;;16.40;79.00;;;;;;3979667;29;20053;-69
2022/09/20 07:52:15;;;;;;;0.00;0.00;;;16.50;79.40;;;;;;3986080;29;20061;-70
2022/09/20 07:54:38;;;;;;;0.00;0.00;;;16.50;79.50;;;;;;3982142;29;20066;-69
2022/09/20 07:57:02;;;;;;;0.00;0.00;;;16.60;79.60;;;;;;3970750;29;20065;-69
2022/09/20 07:59:43;;;;;;;0.00;0.00;;;16.70;79.80;;;;;;3971846;29;20066;-70
2022/09/20 08:02:23;;;;;;;0.00;0.00;;;16.70;79.60;;;;;;3970857;29;20083;-70
2022/09/20 08:04:48;;;;;;;0.00;0.00;;;16.80;79.50;;;;;;3970050;29;20058;-71
2022/09/20 08:07:29;;;;;;;0.00;0.00;;;16.80;79.30;;;;;;3970577;29;20057;-71
2022/09/20 08:09:52;;;;;;;0.00;0.00;;;16.90;79.20;;;;;;3974504;29;20054;-70
2022/09/20 08:12:18;;;;;;;0.00;0.00;;;16.90;79.00;;;;;;3983488;29;20054;-70
2022/09/20 08:15:19;;;;;;;0.00;0.00;;;17.00;79.00;;;;;;3971673;29;20466;-71
2022/09/20 08:18:01;;;;;;;0.15;0.15;;;17.10;78.80;;;;;;3973171;29;20066;-71
2022/09/20 08:20:23;;;;;;;0.00;0.00;;;17.10;78.50;;;;;;3985780;29;20061;-70
2022/09/20 08:22:46;;;;;;;0.00;0.00;;;17.10;78.40;;;;;;3984493;29;20065;-70
2022/09/20 08:25:40;;;;;;;0.00;0.00;;;17.10;78.30;;;;;;3994612;29;20221;-70
2022/09/20 08:28:04;;;;;;;0.00;0.00;;;17.20;78.10;;;;;;3985650;29;20149;-71
2022/09/20 08:30:26;;;;;;;0.28;0.28;;;17.20;78.00;;;;;;3985185;29;20474;-69
2022/09/20 08:33:07;;;;;;;0.00;0.00;;;17.30;78.00;;;;;;3985545;29;20186;-69
2022/09/20 08:35:49;;;;;;;0.00;0.00;;;17.30;78.40;;;;;;3985595;29;20102;-67
2022/09/20 08:38:11;;;;;;;0.00;0.00;;;17.40;78.20;;;;;;3984775;29;20133;-63
2022/09/20 08:40:55;;;;;;;0.10;0.10;;;17.40;78.20;;;;;;3984034;29;20742;-67
2022/09/20 08:43:18;;;;;;;0.00;0.00;;;17.40;77.90;;;;;;3985321;29;20461;-68
2022/09/20 08:46:04;;;;;;;0.00;0.00;;;17.40;77.80;;;;;;3984309;29;20622;-67
2022/09/20 08:48:46;;;;;;;0.00;0.00;;;17.40;77.50;;;;;;3969921;29;20177;-67
2022/09/20 08:51:12;;;;;;;0.63;0.63;;;17.40;77.50;;;;;;3967985;29;20409;-67
2022/09/20 08:53:35;;;;;;;0.00;0.00;;;17.50;77.10;;;;;;3970206;29;20364;-68
2022/09/20 08:55:58;;;;;;;0.00;0.00;;;17.40;77.10;;;;;;3979411;29;20173;-67
2022/09/20 08:58:40;;;;;;;0.00;0.00;;;17.40;76.30;;;;;;3985553;29;20194;-67
2022/09/20 09:01:23;;;;;;;0.25;0.25;;;17.40;75.90;;;;;;3985573;29;20494;-67
2022/09/20 09:03:46;;;;;;;8.88;1.30;;;17.40;75.70;;;;;;3985316;29;20123;-67
2022/09/20 09:06:13;;;;;;;0.00;0.00;;;17.40;75.60;;;;;;3985385;29;20498;-70
2022/09/20 09:08:39;;;;;;;0.00;0.00;;;17.40;75.10;;;;;;3996508;29;20133;-71
2022/09/20 09:11:07;;;;;;;0.35;0.35;;;17.30;75.00;;;;;;3995620;29;20473;-70
2022/09/20 09:13:37;;;;;;;0.00;0.00;;;17.40;75.00;;;;;;3984148;29;20824;-70
2022/09/20 09:16:22;;;;;;;0.00;0.00;;;17.30;74.90;;;;;;3995983;29;20063;-70
2022/09/20 09:19:31;;;;;;;0.00;0.00;;;17.30;75.00;;;;;;3997178;29;20102;-70
2022/09/20 09:21:58;;;;;;;0.00;0.00;;;17.30;75.20;;;;;;3986366;29;20166;-66
2022/09/20 09:24:20;;;;;;;0.00;0.00;;;17.20;75.10;;;;;;3987830;29;20451;-66
2022/09/20 09:27:13;;;;;;;0.00;0.00;;;17.20;75.30;;;;;;3987451;29;20107;-66
2022/09/20 09:29:56;;;;;;;0.00;0.00;;;17.20;75.50;;;;;;3986202;29;20186;-67
2022/09/20 09:32:27;;;;;;;0.00;0.00;;;17.30;75.20;;;;;;3987911;29;20060;-66
2022/09/20 09:34:50;;;;;;;0.00;0.00;;;17.20;75.10;;;;;;3987681;29;20050;-66
2022/09/20 09:37:24;;;;;;;0.00;0.00;;;17.30;74.40;;;;;;3986873;29;20514;-67
2022/09/20 09:40:07;;;;;;;0.00;0.00;;;17.30;73.80;;;;;;3998877;29;20097;-66
2022/09/20 09:42:53;;;;;;;0.00;0.00;;;17.30;73.10;;;;;;3981752;29;20060;-67
2022/09/20 09:45:37;;;;;;;0.00;0.00;;;17.30;73.10;;;;;;3972660;29;20502;-67
2022/09/20 09:48:22;;;;;;;0.00;0.00;;;17.30;73.90;;;;;;3986965;29;20477;-67
2022/09/20 09:51:11;;;;;;;0.00;0.00;;;17.30;73.40;;;;;;3987099;29;20187;-66
2022/09/20 09:53:35;;;;;;;0.00;0.00;;;17.30;73.70;;;;;;3987197;29;20062;-66
2022/09/20 09:56:26;;;;;;;0.00;0.00;;;17.30;73.20;;;;;;3987186;29;20058;-67
2022/09/20 09:59:22;;;;;;;0.00;0.00;;;17.30;73.10;;;;;;3976488;29;20126;-66
2022/09/20 10:01:54;;;;;;;0.00;0.00;;;17.30;72.10;;;;;;3986514;29;20119;-67
2022/09/20 10:04:43;;;;;;;0.00;0.00;;;17.30;72.70;;;;;;3957222;29;20058;-66
2022/09/20 10:07:33;;;;;;;0.00;0.00;;;17.30;72.90;;;;;;3958548;29;20120;-66
2022/09/20 10:10:08;;;;;;;0.00;0.00;;;17.30;72.80;;;;;;3957617;29;20055;-67
2022/09/20 10:13:03;;;;;;;0.00;0.00;;;17.30;72.50;;;;;;3957520;29;20058;-67
2022/09/20 10:15:36;;;;;;;0.00;0.00;;;17.30;72.60;;;;;;3971959;29;20054;-66
2022/09/20 10:18:31;;;;;;;0.00;0.00;;;17.30;71.90;;;;;;3967987;29;20497;-66
2022/09/20 10:21:07;;;;;;;0.00;0.00;;;17.30;71.50;;;;;;3966192;29;20050;-66
2022/09/20 10:23:55;;;;;;;0.00;0.00;;;17.30;72.10;;;;;;3977806;29;20043;-66
2022/09/20 10:27:01;;;;;;;0.00;0.00;;;17.30;72.40;;;;;;3992806;29;20077;-66
2022/09/20 10:29:39;;;;;;;0.00;0.00;;;17.30;72.10;;;;;;3983285;29;20513;-67
2022/09/20 10:32:13;;;;;;;0.00;0.00;;;17.30;72.10;;;;;;3978036;29;20054;-65
2022/09/20 10:35:13;;;;;;;0.00;0.00;;;17.40;72.40;;;;;;3971392;29;20054;-65
2022/09/20 10:38:14;;;;;;;0.00;0.00;;;17.40;72.20;;;;;;3975795;29;20378;-67
2022/09/20 10:44:12;;;;;;;0.00;0.00;;;17.50;71.00;;;;;;3968356;29;20073;-68
2022/09/20 10:47:06;;;;;;;0.00;0.00;;;17.50;70.70;;;;;;3959443;29;20143;-69
2022/09/20 10:49:59;;;;;;;0.00;0.00;;;17.50;70.40;;;;;;3985409;29;20170;-68
2022/09/20 10:53:03;;;;;;;0.13;0.13;;;17.50;70.30;;;;;;3986289;29;20069;-70
2022/09/20 10:55:52;;;;;;;0.82;0.77;;;17.60;69.50;;;;;;3972782;29;20191;-69
2022/09/20 10:58:46;;;;;;;0.00;0.00;;;17.60;69.20;;;;;;3984705;29;20141;-70
2022/09/20 11:01:11;;;;;;;0.00;0.00;;;17.60;68.80;;;;;;3986711;29;20078;-70
2022/09/20 11:03:53;;;;;;;0.90;0.85;;;17.60;68.60;;;;;;3994171;29;20057;-70
2022/09/20 11:06:22;;;;;;;0.00;0.00;;;17.70;68.80;;;;;;4001672;29;20331;-70
2022/09/20 11:09:08;;;;;;;0.00;0.00;;;17.70;68.60;;;;;;4001734;29;20091;-69
2022/09/20 11:11:39;;;;;;;0.00;0.00;;;17.70;68.20;;;;;;4003607;29;20122;-69
2022/09/20 11:14:05;;;;;;;0.40;0.40;;;17.70;67.50;;;;;;3995743;29;20057;-69
2022/09/20 11:16:34;;;;;;;0.00;0.00;;;17.70;67.50;;;;;;3997902;29;20046;-68
2022/09/20 11:19:00;;;;;;;0.00;0.00;;;17.70;67.90;;;;;;3995479;29;20054;-70
2022/09/20 11:21:27;;;;;;;0.00;0.00;;;17.80;68.00;;;;;;3985238;29;20136;-69
2022/09/20 11:24:15;;;;;;;2.08;1.95;;;17.80;68.80;;;;;;3985978;29;20050;-68
2022/09/20 11:26:42;;;;;;;0.00;0.00;;;17.80;69.00;;;;;;3986259;29;20054;-69
2022/09/20 11:29:13;;;;;;;0.00;0.00;;;17.80;69.10;;;;;;3985857;29;20058;-68
2022/09/20 11:31:39;;;;;;;1.25;1.15;;;17.80;69.20;;;;;;3985758;29;20137;-68
2022/09/20 11:34:10;;;;;;;0.00;0.00;;;17.80;68.60;;;;;;3984218;29;20054;-68
2022/09/20 11:36:57;;;;;;;0.00;0.00;;;17.80;68.40;;;;;;3975010;29;20144;-68
2022/09/20 11:39:28;;;;;;;0.00;0.00;;;17.90;68.80;;;;;;3969445;29;20047;-67
2022/09/20 11:42:15;;;;;;;0.00;0.00;;;17.90;68.40;;;;;;3992596;29;20054;-67
2022/09/20 11:44:40;;;;;;;0.00;0.00;;;17.90;67.60;;;;;;3985449;29;20123;-66
2022/09/20 11:47:06;;;;;;;0.00;0.00;;;17.90;66.30;;;;;;3985790;29;20111;-68
2022/09/20 11:50:07;;;;;;;0.00;0.00;;;18.00;66.30;;;;;;3975334;29;20537;-66
2022/09/20 11:53:03;;;;;;;0.00;0.00;;;17.90;66.70;;;;;;3969209;29;20079;-66
2022/09/20 11:55:52;;;;;;;1.95;1.45;;;18.00;66.30;;;;;;3969311;29;20047;-66
2022/09/20 11:58:47;;;;;;;0.00;0.00;;;18.00;65.90;;;;;;3970963;29;20517;-67
2022/09/20 12:01:13;;;;;;;0.00;0.00;;;18.00;66.30;;;;;;3983561;29;20111;-67
2022/09/20 12:03:39;;;;;;;0.00;0.00;;;18.00;67.00;;;;;;3985767;29;20050;-66
2022/09/20 12:06:03;;;;;;;0.00;0.00;;;18.00;67.70;;;;;;3985613;29;20053;-67
2022/09/20 12:08:50;;;;;;;0.38;0.38;;;18.00;68.00;;;;;;3985780;29;20077;-68
2022/09/20 12:11:15;;;;;;;0.00;0.00;;;18.00;68.20;;;;;;3984826;29;20046;-66
2022/09/20 12:13:39;;;;;;;0.00;0.00;;;18.00;68.30;;;;;;3982429;29;20054;-62
2022/09/20 12:16:37;;;;;;;0.00;0.00;;;18.00;68.40;;;;;;3970959;29;20410;-66
2022/09/20 12:19:37;;;;;;;0.00;0.00;;;18.00;69.00;;;;;;3975535;29;20070;-66
2022/09/20 12:22:30;;;;;;;0.00;0.00;;;18.00;69.20;;;;;;3984275;29;20525;-66
2022/09/20 12:25:27;;;;;;;0.00;0.00;;;18.00;69.50;;;;;;3985452;29;20101;-66
2022/09/20 12:27:59;;;;;;;0.00;0.00;;;18.00;69.80;;;;;;3973690;29;20135;-66
2022/09/20 12:30:40;;;;;;;;;;;18.00;67.80;;;;;;3972210;29;20522;-67
2022/09/20 12:33:03;;;;;;;;;;;18.00;66.20;;;;;;3970456;29;19964;-67
2022/09/20 12:35:58;;;;;;;0.00;0.00;;;18.00;65.20;;;;;;3970708;29;19929;-67
2022/09/20 12:38:30;;;;;;;0.00;0.00;;;18.00;66.10;;;;;;3955148;29;20078;-66
2022/09/20 12:41:00;;;;;;;0.00;0.00;;;18.00;67.50;;;;;;3968388;29;20047;-66
2022/09/20 12:43:58;;;;;;;0.00;0.00;;;18.10;67.80;;;;;;3993440;29;20375;-66
2022/09/20 12:46:49;;;;;;;1.55;0.98;;;18.10;67.90;;;;;;3985024;29;20589;-66
2022/09/20 12:52:59;;;;;;;0.15;0.15;;;18.20;66.20;;;;;;3981146;29;20053;-67
2022/09/20 12:55:45;;;;;;;0.00;0.00;;;18.20;66.20;;;;;;3973563;29;20061;-67
2022/09/20 12:58:21;;;;;;;0.13;0.13;;;18.20;65.80;;;;;;3973050;29;20062;-66
2022/09/20 13:00:47;;;;;;;0.00;0.00;;;18.20;66.40;;;;;;3985490;29;20099;-67
2022/09/20 13:03:30;;;;;;;0.00;0.00;;;18.20;66.50;;;;;;3981721;29;20054;-67
2022/09/20 13:06:25;;;;;;;4.20;1.25;;;18.30;65.70;;;;;;3985728;29;20057;-68
2022/09/20 13:09:08;;;;;;;0.00;0.00;;;18.30;67.70;;;;;;3979415;29;20145;-67
2022/09/20 13:11:54;;;;;;;0.00;0.00;;;18.30;66.70;;;;;;3987642;29;20121;-69
2022/09/20 13:14:40;;;;;;;0.00;0.00;;;18.30;67.40;;;;;;3996859;29;20073;-69
2022/09/20 13:17:29;;;;;;;0.00;0.00;;;18.40;66.50;;;;;;3987780;29;20167;-69
2022/09/20 13:19:52;;;;;;;0.00;0.00;;;18.40;66.10;;;;;;3999318;29;20061;-69
2022/09/20 13:22:42;;;;;;;0.00;0.00;;;18.40;66.20;;;;;;3972760;29;20057;-69
2022/09/20 13:25:24;;;;;;;0.00;0.00;;;18.40;66.40;;;;;;3973179;29;20095;-69
2022/09/20 13:28:18;;;;;;;0.30;0.30;;;18.40;66.30;;;;;;3973080;29;20486;-69
2022/09/20 13:31:24;;;;;;;0.00;0.00;;;18.40;65.90;;;;;;3987259;29;20105;-69
2022/09/20 13:33:47;;;;;;;0.00;0.00;;;18.40;66.30;;;;;;3992455;29;20058;-67
2022/09/20 13:36:30;;;;;;;0.00;0.00;;;18.40;66.20;;;;;;3994891;29;20603;-68
2022/09/20 13:39:28;;;;;;;0.00;0.00;;;18.40;65.80;;;;;;3993461;29;20536;-68
2022/09/20 13:42:15;;;;;;;0.00;0.00;;;18.40;66.00;;;;;;3991559;29;20048;-68
2022/09/20 13:44:57;;;;;;;0.00;0.00;;;18.50;66.70;;;;;;3976127;29;20058;-67
2022/09/20 13:47:42;;;;;;;0.00;0.00;;;18.40;67.50;;;;;;3976252;29;20058;-67
2022/09/20 13:50:17;;;;;;;0.00;0.00;;;18.50;66.30;;;;;;3994411;29;20054;-68
2022/09/20 13:53:01;;;;;;;0.00;0.00;;;18.50;67.20;;;;;;4004515;29;20076;-69
2022/09/20 13:55:43;;;;;;;0.00;0.00;;;18.40;66.40;;;;;;4002506;29;20509;-68
2022/09/20 13:58:27;;;;;;;0.00;0.00;;;18.50;66.60;;;;;;3987714;29;20841;-68
2022/09/20 14:00:52;;;;;;;0.00;0.00;;;18.50;67.30;;;;;;3982283;29;20198;-68
2022/09/20 14:03:17;;;;;;;0.00;0.00;;;18.50;66.10;;;;;;3997323;29;20409;-67
2022/09/20 14:06:02;;;;;;;0.00;0.00;;;18.50;66.50;;;;;;3972066;29;20061;-68
2022/09/20 14:08:27;;;;;;;0.00;0.00;;;18.60;66.20;;;;;;3971932;29;20070;-68
2022/09/20 14:11:02;;;;;;;0.00;0.00;;;18.60;65.80;;;;;;3986318;29;20076;-68
2022/09/20 14:13:46;;;;;;;0.00;0.00;;;18.60;66.20;;;;;;3995901;29;20062;-67
2022/09/20 14:16:30;;;;;;;0.00;0.00;;;18.60;64.80;;;;;;3986448;29;20053;-68